sensor_id;sensor_type;location;lat;lon;timestamp;P1;durP1;ratioP1;P2;durP2;ratioP2
20743;SDS011;56303;52.160;-0.428;2022-12-07T00:03:40;12.67;;;7.23;;
20743;SDS011;56303;52.160;-0.428;2022-12-07T00:06:09;11.53;;;7.20;;
20743;SDS011;56303;52.160;-0.428;2022-12-07T00:08:38;14.27;;;7.00;;
20743;SDS011;56303;52.160;-0.428;2022-12-07T00:11:06;11.10;;;7.00;;
20743;SDS011;56303;52.160;-0.428;2022-12-07T00:13:35;11.27;;;7.40;;
20743;SDS011;56303;52.160;-0.428;2022-12-07T00:16:09;15.47;;;8.07;;
20743;SDS011;56303;52.160;-0.428;2022-12-07T00:18:38;14.83;;;7.47;;
20743;SDS011;56303;52.160;-0.428;2022-12-07T00:21:06;13.87;;;7.50;;
20743;SDS011;56303;52.160;-0.428;2022-12-07T00:23:39;15.30;;;7.23;;
20743;SDS011;56303;52.160;-0.428;2022-12-07T00:26:08;12.47;;;7.30;;
20743;SDS011;56303;52.160;-0.428;2022-12-07T00:28:37;14.60;;;8.07;;
20743;SDS011;56303;52.160;-0.428;2022-12-07T00:31:05;13.50;;;8.23;;
20743;SDS011;56303;52.160;-0.428;2022-12-07T00:33:33;12.87;;;7.17;;
20743;SDS011;56303;52.160;-0.428;2022-12-07T00:36:01;12.67;;;7.33;;
20743;SDS011;56303;52.160;-0.428;2022-12-07T00:38:31;11.93;;;8.03;;
20743;SDS011;56303;52.160;-0.428;2022-12-07T00:41:06;14.30;;;7.80;;
20743;SDS011;56303;52.160;-0.428;2022-12-07T00:43:41;11.20;;;6.63;;
20743;SDS011;56303;52.160;-0.428;2022-12-07T00:46:10;12.93;;;7.73;;
20743;SDS011;56303;52.160;-0.428;2022-12-07T00:48:37;14.80;;;9.50;;
20743;SDS011;56303;52.160;-0.428;2022-12-07T00:51:05;11.90;;;7.57;;
20743;SDS011;56303;52.160;-0.428;2022-12-07T00:53:36;13.13;;;8.13;;
20743;SDS011;56303;52.160;-0.428;2022-12-07T00:56:07;13.93;;;7.93;;
20743;SDS011;56303;52.160;-0.428;2022-12-07T00:58:36;15.73;;;9.40;;
20743;SDS011;56303;52.160;-0.428;2022-12-07T01:01:03;16.77;;;9.87;;
20743;SDS011;56303;52.160;-0.428;2022-12-07T01:03:32;14.27;;;8.47;;
20743;SDS011;56303;52.160;-0.428;2022-12-07T01:06:00;15.17;;;8.33;;
20743;SDS011;56303;52.160;-0.428;2022-12-07T01:08:28;17.53;;;9.20;;
20743;SDS011;56303;52.160;-0.428;2022-12-07T01:10:58;14.43;;;8.93;;
20743;SDS011;56303;52.160;-0.428;2022-12-07T01:13:33;15.83;;;8.80;;
20743;SDS011;56303;52.160;-0.428;2022-12-07T01:16:01;11.73;;;7.53;;
20743;SDS011;56303;52.160;-0.428;2022-12-07T01:18:32;15.37;;;7.80;;
20743;SDS011;56303;52.160;-0.428;2022-12-07T01:23:33;12.83;;;7.77;;
20743;SDS011;56303;52.160;-0.428;2022-12-07T01:26:01;14.30;;;7.77;;
20743;SDS011;56303;52.160;-0.428;2022-12-07T01:28:30;13.63;;;8.40;;
20743;SDS011;56303;52.160;-0.428;2022-12-07T01:31:00;12.70;;;7.57;;
20743;SDS011;56303;52.160;-0.428;2022-12-07T01:33:33;15.17;;;8.70;;
20743;SDS011;56303;52.160;-0.428;2022-12-07T01:36:02;15.13;;;8.37;;
20743;SDS011;56303;52.160;-0.428;2022-12-07T01:38:44;15.47;;;8.33;;
20743;SDS011;56303;52.160;-0.428;2022-12-07T01:41:13;15.83;;;8.30;;
20743;SDS011;56303;52.160;-0.428;2022-12-07T01:46:32;11.43;;;7.00;;
20743;SDS011;56303;52.160;-0.428;2022-12-07T01:48:59;18.37;;;8.27;;
20743;SDS011;56303;52.160;-0.428;2022-12-07T01:51:26;18.43;;;8.00;;
20743;SDS011;56303;52.160;-0.428;2022-12-07T01:53:54;11.33;;;7.47;;
20743;SDS011;56303;52.160;-0.428;2022-12-07T01:56:22;12.57;;;7.70;;
20743;SDS011;56303;52.160;-0.428;2022-12-07T01:58:52;13.73;;;7.67;;
20743;SDS011;56303;52.160;-0.428;2022-12-07T02:01:20;14.67;;;7.40;;
20743;SDS011;56303;52.160;-0.428;2022-12-07T02:03:47;14.50;;;7.77;;
20743;SDS011;56303;52.160;-0.428;2022-12-07T02:06:16;11.80;;;7.00;;
20743;SDS011;56303;52.160;-0.428;2022-12-07T02:08:46;12.23;;;7.73;;
20743;SDS011;56303;52.160;-0.428;2022-12-07T02:11:13;15.80;;;8.20;;
20743;SDS011;56303;52.160;-0.428;2022-12-07T02:13:41;12.43;;;7.80;;
20743;SDS011;56303;52.160;-0.428;2022-12-07T02:30:17;11.70;;;6.73;;
20743;SDS011;56303;52.160;-0.428;2022-12-07T02:32:56;12.93;;;6.87;;
20743;SDS011;56303;52.160;-0.428;2022-12-07T02:41:11;9.37;;;6.20;;
20743;SDS011;56303;52.160;-0.428;2022-12-07T02:43:43;9.10;;;5.17;;
20743;SDS011;56303;52.160;-0.428;2022-12-07T02:46:14;12.97;;;6.40;;
20743;SDS011;56303;52.160;-0.428;2022-12-07T02:48:45;17.73;;;7.23;;
20743;SDS011;56303;52.160;-0.428;2022-12-07T02:51:13;10.27;;;5.87;;
20743;SDS011;56303;52.160;-0.428;2022-12-07T02:53:41;9.03;;;5.90;;
20743;SDS011;56303;52.160;-0.428;2022-12-07T02:59:17;11.40;;;6.90;;
20743;SDS011;56303;52.160;-0.428;2022-12-07T03:18:20;8.97;;;4.40;;
20743;SDS011;56303;52.160;-0.428;2022-12-07T03:20:50;8.77;;;5.40;;
20743;SDS011;56303;52.160;-0.428;2022-12-07T03:23:19;11.60;;;4.93;;
20743;SDS011;56303;52.160;-0.428;2022-12-07T03:25:49;6.97;;;4.37;;
20743;SDS011;56303;52.160;-0.428;2022-12-07T03:28:27;7.60;;;4.80;;
20743;SDS011;56303;52.160;-0.428;2022-12-07T03:31:03;8.73;;;3.80;;
20743;SDS011;56303;52.160;-0.428;2022-12-07T03:33:44;13.57;;;4.97;;
20743;SDS011;56303;52.160;-0.428;2022-12-07T03:36:20;8.93;;;4.57;;
20743;SDS011;56303;52.160;-0.428;2022-12-07T03:38:54;13.87;;;5.03;;
20743;SDS011;56303;52.160;-0.428;2022-12-07T03:41:35;10.47;;;4.60;;
20743;SDS011;56303;52.160;-0.428;2022-12-07T03:44:10;8.73;;;4.83;;
20743;SDS011;56303;52.160;-0.428;2022-12-07T03:46:41;10.33;;;4.27;;
20743;SDS011;56303;52.160;-0.428;2022-12-07T03:57:25;11.30;;;4.80;;
20743;SDS011;56303;52.160;-0.428;2022-12-07T03:59:55;8.87;;;4.30;;
20743;SDS011;56303;52.160;-0.428;2022-12-07T04:02:23;10.97;;;3.80;;
20743;SDS011;56303;52.160;-0.428;2022-12-07T04:04:53;11.43;;;4.20;;
20743;SDS011;56303;52.160;-0.428;2022-12-07T04:07:20;7.77;;;4.00;;
20743;SDS011;56303;52.160;-0.428;2022-12-07T04:09:47;10.97;;;4.70;;
20743;SDS011;56303;52.160;-0.428;2022-12-07T04:12:15;9.83;;;4.23;;
20743;SDS011;56303;52.160;-0.428;2022-12-07T04:14:42;10.87;;;4.40;;
20743;SDS011;56303;52.160;-0.428;2022-12-07T04:17:09;8.13;;;3.60;;
20743;SDS011;56303;52.160;-0.428;2022-12-07T04:19:37;5.93;;;3.60;;
20743;SDS011;56303;52.160;-0.428;2022-12-07T04:22:04;10.37;;;3.67;;
20743;SDS011;56303;52.160;-0.428;2022-12-07T04:24:32;7.60;;;3.40;;
20743;SDS011;56303;52.160;-0.428;2022-12-07T04:26:59;6.57;;;3.90;;
20743;SDS011;56303;52.160;-0.428;2022-12-07T04:29:26;7.83;;;2.97;;
20743;SDS011;56303;52.160;-0.428;2022-12-07T04:31:53;6.77;;;3.00;;
20743;SDS011;56303;52.160;-0.428;2022-12-07T04:34:20;6.57;;;3.50;;
20743;SDS011;56303;52.160;-0.428;2022-12-07T04:36:47;7.20;;;3.37;;
20743;SDS011;56303;52.160;-0.428;2022-12-07T04:39:20;8.43;;;3.00;;
20743;SDS011;56303;52.160;-0.428;2022-12-07T04:41:51;7.53;;;3.30;;
20743;SDS011;56303;52.160;-0.428;2022-12-07T04:44:18;8.93;;;3.20;;
20743;SDS011;56303;52.160;-0.428;2022-12-07T04:46:45;13.60;;;3.67;;
20743;SDS011;56303;52.160;-0.428;2022-12-07T04:49:13;11.53;;;3.93;;
20743;SDS011;56303;52.160;-0.428;2022-12-07T04:51:40;7.23;;;3.37;;
20743;SDS011;56303;52.160;-0.428;2022-12-07T04:54:08;6.40;;;3.40;;
20743;SDS011;56303;52.160;-0.428;2022-12-07T04:56:34;7.87;;;3.70;;
20743;SDS011;56303;52.160;-0.428;2022-12-07T04:59:02;7.40;;;3.40;;
20743;SDS011;56303;52.160;-0.428;2022-12-07T05:01:29;9.23;;;3.27;;
20743;SDS011;56303;52.160;-0.428;2022-12-07T05:03:56;6.57;;;3.30;;
20743;SDS011;56303;52.160;-0.428;2022-12-07T05:06:23;7.87;;;3.97;;
20743;SDS011;56303;52.160;-0.428;2022-12-07T05:08:50;8.37;;;3.10;;
20743;SDS011;56303;52.160;-0.428;2022-12-07T05:11:17;8.13;;;3.80;;
20743;SDS011;56303;52.160;-0.428;2022-12-07T05:14:08;7.20;;;3.93;;
20743;SDS011;56303;52.160;-0.428;2022-12-07T05:16:41;8.30;;;3.67;;
20743;SDS011;56303;52.160;-0.428;2022-12-07T05:19:09;8.20;;;3.50;;
20743;SDS011;56303;52.160;-0.428;2022-12-07T05:21:36;4.87;;;2.80;;
20743;SDS011;56303;52.160;-0.428;2022-12-07T05:24:04;8.90;;;3.40;;
20743;SDS011;56303;52.160;-0.428;2022-12-07T05:26:32;9.17;;;3.00;;
20743;SDS011;56303;52.160;-0.428;2022-12-07T05:28:59;10.77;;;3.77;;
20743;SDS011;56303;52.160;-0.428;2022-12-07T05:31:26;6.63;;;3.30;;
20743;SDS011;56303;52.160;-0.428;2022-12-07T05:33:53;6.87;;;3.57;;
20743;SDS011;56303;52.160;-0.428;2022-12-07T05:36:20;9.63;;;3.63;;
20743;SDS011;56303;52.160;-0.428;2022-12-07T05:38:47;7.43;;;3.10;;
20743;SDS011;56303;52.160;-0.428;2022-12-07T05:41:15;6.00;;;3.00;;
20743;SDS011;56303;52.160;-0.428;2022-12-07T05:44:02;7.00;;;3.63;;
20743;SDS011;56303;52.160;-0.428;2022-12-07T05:46:29;7.13;;;3.30;;
20743;SDS011;56303;52.160;-0.428;2022-12-07T05:48:56;7.60;;;3.60;;
20743;SDS011;56303;52.160;-0.428;2022-12-07T05:51:23;7.83;;;3.63;;
20743;SDS011;56303;52.160;-0.428;2022-12-07T05:53:50;14.23;;;4.17;;
20743;SDS011;56303;52.160;-0.428;2022-12-07T05:56:17;8.50;;;3.67;;
20743;SDS011;56303;52.160;-0.428;2022-12-07T05:58:43;9.43;;;4.27;;
20743;SDS011;56303;52.160;-0.428;2022-12-07T06:01:29;10.23;;;4.67;;
20743;SDS011;56303;52.160;-0.428;2022-12-07T06:03:56;12.20;;;4.70;;
20743;SDS011;56303;52.160;-0.428;2022-12-07T06:06:22;11.80;;;3.63;;
20743;SDS011;56303;52.160;-0.428;2022-12-07T06:08:49;12.27;;;4.30;;
20743;SDS011;56303;52.160;-0.428;2022-12-07T06:11:16;11.70;;;4.50;;
20743;SDS011;56303;52.160;-0.428;2022-12-07T06:14:01;10.90;;;4.90;;
20743;SDS011;56303;52.160;-0.428;2022-12-07T06:16:28;11.67;;;5.10;;
20743;SDS011;56303;52.160;-0.428;2022-12-07T06:18:55;10.70;;;5.10;;
20743;SDS011;56303;52.160;-0.428;2022-12-07T06:21:22;12.43;;;6.60;;
20743;SDS011;56303;52.160;-0.428;2022-12-07T06:23:49;10.97;;;5.47;;
20743;SDS011;56303;52.160;-0.428;2022-12-07T06:26:16;11.13;;;6.40;;
20743;SDS011;56303;52.160;-0.428;2022-12-07T06:28:43;10.93;;;6.17;;
20743;SDS011;56303;52.160;-0.428;2022-12-07T06:31:09;10.30;;;6.30;;
20743;SDS011;56303;52.160;-0.428;2022-12-07T06:33:39;15.03;;;7.20;;
20743;SDS011;56303;52.160;-0.428;2022-12-07T06:36:06;12.13;;;6.70;;
20743;SDS011;56303;52.160;-0.428;2022-12-07T06:38:34;13.67;;;7.33;;
20743;SDS011;56303;52.160;-0.428;2022-12-07T06:41:01;12.70;;;7.43;;
20743;SDS011;56303;52.160;-0.428;2022-12-07T06:43:28;12.47;;;7.73;;
20743;SDS011;56303;52.160;-0.428;2022-12-07T06:45:55;12.57;;;7.40;;
20743;SDS011;56303;52.160;-0.428;2022-12-07T06:48:22;11.37;;;7.07;;
20743;SDS011;56303;52.160;-0.428;2022-12-07T06:50:49;13.83;;;7.13;;
20743;SDS011;56303;52.160;-0.428;2022-12-07T06:53:20;11.23;;;7.03;;
20743;SDS011;56303;52.160;-0.428;2022-12-07T06:55:48;17.53;;;8.90;;
20743;SDS011;56303;52.160;-0.428;2022-12-07T06:58:15;17.67;;;8.27;;
20743;SDS011;56303;52.160;-0.428;2022-12-07T07:00:43;18.20;;;7.43;;
20743;SDS011;56303;52.160;-0.428;2022-12-07T07:03:10;13.30;;;7.80;;
20743;SDS011;56303;52.160;-0.428;2022-12-07T07:05:37;14.90;;;7.80;;
20743;SDS011;56303;52.160;-0.428;2022-12-07T07:08:04;12.40;;;7.93;;
20743;SDS011;56303;52.160;-0.428;2022-12-07T07:10:48;13.50;;;8.10;;
20743;SDS011;56303;52.160;-0.428;2022-12-07T07:13:15;15.50;;;8.67;;
20743;SDS011;56303;52.160;-0.428;2022-12-07T07:15:42;14.70;;;8.40;;
20743;SDS011;56303;52.160;-0.428;2022-12-07T07:18:09;13.07;;;7.53;;
20743;SDS011;56303;52.160;-0.428;2022-12-07T07:20:36;16.00;;;8.57;;
20743;SDS011;56303;52.160;-0.428;2022-12-07T07:23:03;14.90;;;7.70;;
20743;SDS011;56303;52.160;-0.428;2022-12-07T07:25:31;11.80;;;6.37;;
20743;SDS011;56303;52.160;-0.428;2022-12-07T07:27:58;10.53;;;7.30;;
20743;SDS011;56303;52.160;-0.428;2022-12-07T07:30:25;15.17;;;7.87;;
20743;SDS011;56303;52.160;-0.428;2022-12-07T07:33:00;13.77;;;7.60;;
20743;SDS011;56303;52.160;-0.428;2022-12-07T07:35:28;16.90;;;8.30;;
20743;SDS011;56303;52.160;-0.428;2022-12-07T07:37:56;15.23;;;8.00;;
20743;SDS011;56303;52.160;-0.428;2022-12-07T07:40:23;13.93;;;8.67;;
20743;SDS011;56303;52.160;-0.428;2022-12-07T07:42:51;14.47;;;8.80;;
20743;SDS011;56303;52.160;-0.428;2022-12-07T07:45:19;10.40;;;6.97;;
20743;SDS011;56303;52.160;-0.428;2022-12-07T07:47:47;12.47;;;7.60;;
20743;SDS011;56303;52.160;-0.428;2022-12-07T07:50:14;14.23;;;8.50;;
20743;SDS011;56303;52.160;-0.428;2022-12-07T07:52:42;15.63;;;9.37;;
20743;SDS011;56303;52.160;-0.428;2022-12-07T07:55:09;13.40;;;7.87;;
20743;SDS011;56303;52.160;-0.428;2022-12-07T07:57:37;13.00;;;7.93;;
20743;SDS011;56303;52.160;-0.428;2022-12-07T08:00:07;13.13;;;8.00;;
20743;SDS011;56303;52.160;-0.428;2022-12-07T08:02:39;12.60;;;7.87;;
20743;SDS011;56303;52.160;-0.428;2022-12-07T08:05:09;11.93;;;7.43;;
20743;SDS011;56303;52.160;-0.428;2022-12-07T08:07:38;12.67;;;7.07;;
20743;SDS011;56303;52.160;-0.428;2022-12-07T08:10:05;12.53;;;7.87;;
20743;SDS011;56303;52.160;-0.428;2022-12-07T08:12:36;15.73;;;7.70;;
20743;SDS011;56303;52.160;-0.428;2022-12-07T08:15:24;12.70;;;7.47;;
20743;SDS011;56303;52.160;-0.428;2022-12-07T08:17:52;15.60;;;8.87;;
20743;SDS011;56303;52.160;-0.428;2022-12-07T08:20:19;13.80;;;7.90;;
20743;SDS011;56303;52.160;-0.428;2022-12-07T08:22:46;15.70;;;9.13;;
20743;SDS011;56303;52.160;-0.428;2022-12-07T08:25:13;14.93;;;8.07;;
20743;SDS011;56303;52.160;-0.428;2022-12-07T08:27:40;16.00;;;9.07;;
20743;SDS011;56303;52.160;-0.428;2022-12-07T08:30:07;13.47;;;8.43;;
20743;SDS011;56303;52.160;-0.428;2022-12-07T08:32:34;15.37;;;7.93;;
20743;SDS011;56303;52.160;-0.428;2022-12-07T08:35:01;12.73;;;7.80;;
20743;SDS011;56303;52.160;-0.428;2022-12-07T08:37:28;19.27;;;10.13;;
20743;SDS011;56303;52.160;-0.428;2022-12-07T08:39:55;16.93;;;8.23;;
20743;SDS011;56303;52.160;-0.428;2022-12-07T08:42:22;18.27;;;9.50;;
20743;SDS011;56303;52.160;-0.428;2022-12-07T08:44:53;14.43;;;8.80;;
20743;SDS011;56303;52.160;-0.428;2022-12-07T08:47:20;11.13;;;7.87;;
20743;SDS011;56303;52.160;-0.428;2022-12-07T08:49:47;12.57;;;8.20;;
20743;SDS011;56303;52.160;-0.428;2022-12-07T08:52:18;14.70;;;8.43;;
20743;SDS011;56303;52.160;-0.428;2022-12-07T08:54:44;13.37;;;8.70;;
20743;SDS011;56303;52.160;-0.428;2022-12-07T08:57:11;15.33;;;9.03;;
20743;SDS011;56303;52.160;-0.428;2022-12-07T08:59:38;14.27;;;9.80;;
20743;SDS011;56303;52.160;-0.428;2022-12-07T09:02:06;14.73;;;9.17;;
20743;SDS011;56303;52.160;-0.428;2022-12-07T09:04:33;15.87;;;9.87;;
20743;SDS011;56303;52.160;-0.428;2022-12-07T09:07:00;14.00;;;8.70;;
20743;SDS011;56303;52.160;-0.428;2022-12-07T09:09:27;13.67;;;8.77;;
20743;SDS011;56303;52.160;-0.428;2022-12-07T09:11:54;12.37;;;8.47;;
20743;SDS011;56303;52.160;-0.428;2022-12-07T09:14:21;15.47;;;9.77;;
20743;SDS011;56303;52.160;-0.428;2022-12-07T09:16:48;14.90;;;8.87;;
20743;SDS011;56303;52.160;-0.428;2022-12-07T09:19:15;13.80;;;9.57;;
20743;SDS011;56303;52.160;-0.428;2022-12-07T09:21:45;17.50;;;9.43;;
20743;SDS011;56303;52.160;-0.428;2022-12-07T09:24:12;13.80;;;9.37;;
20743;SDS011;56303;52.160;-0.428;2022-12-07T09:26:39;15.80;;;9.63;;
20743;SDS011;56303;52.160;-0.428;2022-12-07T09:29:06;11.43;;;7.93;;
20743;SDS011;56303;52.160;-0.428;2022-12-07T09:31:35;13.20;;;8.60;;
20743;SDS011;56303;52.160;-0.428;2022-12-07T09:34:03;12.80;;;7.90;;
20743;SDS011;56303;52.160;-0.428;2022-12-07T09:36:32;13.50;;;8.33;;
20743;SDS011;56303;52.160;-0.428;2022-12-07T09:38:59;12.63;;;8.60;;
20743;SDS011;56303;52.160;-0.428;2022-12-07T09:41:26;12.60;;;7.50;;
20743;SDS011;56303;52.160;-0.428;2022-12-07T09:43:58;13.47;;;8.17;;
20743;SDS011;56303;52.160;-0.428;2022-12-07T09:46:49;14.30;;;7.33;;
20743;SDS011;56303;52.160;-0.428;2022-12-07T09:49:20;11.90;;;7.37;;
20743;SDS011;56303;52.160;-0.428;2022-12-07T09:52:02;12.60;;;8.33;;
20743;SDS011;56303;52.160;-0.428;2022-12-07T09:54:48;11.43;;;7.13;;
20743;SDS011;56303;52.160;-0.428;2022-12-07T09:57:16;15.37;;;7.83;;
20743;SDS011;56303;52.160;-0.428;2022-12-07T09:59:45;11.37;;;7.60;;
20743;SDS011;56303;52.160;-0.428;2022-12-07T10:02:25;12.57;;;8.63;;
20743;SDS011;56303;52.160;-0.428;2022-12-07T10:05:05;9.90;;;6.83;;
20743;SDS011;56303;52.160;-0.428;2022-12-07T10:07:36;13.43;;;8.40;;
20743;SDS011;56303;52.160;-0.428;2022-12-07T10:10:04;12.80;;;6.80;;
20743;SDS011;56303;52.160;-0.428;2022-12-07T10:12:52;11.03;;;7.20;;
20743;SDS011;56303;52.160;-0.428;2022-12-07T10:15:20;13.53;;;7.80;;
20743;SDS011;56303;52.160;-0.428;2022-12-07T10:17:51;13.90;;;7.83;;
20743;SDS011;56303;52.160;-0.428;2022-12-07T10:20:25;12.97;;;8.10;;
20743;SDS011;56303;52.160;-0.428;2022-12-07T10:22:57;10.03;;;7.33;;
20743;SDS011;56303;52.160;-0.428;2022-12-07T10:25:30;9.10;;;7.27;;
20743;SDS011;56303;52.160;-0.428;2022-12-07T10:30:57;7.73;;;5.57;;
20743;SDS011;56303;52.160;-0.428;2022-12-07T10:36:18;11.03;;;6.27;;
20743;SDS011;56303;52.160;-0.428;2022-12-07T10:38:50;10.83;;;6.00;;
20743;SDS011;56303;52.160;-0.428;2022-12-07T10:41:28;9.90;;;5.53;;
20743;SDS011;56303;52.160;-0.428;2022-12-07T10:43:56;9.57;;;5.87;;
20743;SDS011;56303;52.160;-0.428;2022-12-07T10:52:18;9.93;;;5.37;;
20743;SDS011;56303;52.160;-0.428;2022-12-07T11:07:05;7.97;;;4.27;;
20743;SDS011;56303;52.160;-0.428;2022-12-07T11:09:55;6.67;;;3.87;;
20743;SDS011;56303;52.160;-0.428;2022-12-07T11:15:49;6.97;;;3.80;;
20743;SDS011;56303;52.160;-0.428;2022-12-07T11:18:28;5.03;;;3.00;;
20743;SDS011;56303;52.160;-0.428;2022-12-07T11:37:59;6.50;;;2.60;;
20743;SDS011;56303;52.160;-0.428;2022-12-07T11:40:34;4.83;;;2.50;;
20743;SDS011;56303;52.160;-0.428;2022-12-07T11:45:42;6.03;;;2.47;;
20743;SDS011;56303;52.160;-0.428;2022-12-07T11:48:28;6.97;;;2.97;;
20743;SDS011;56303;52.160;-0.428;2022-12-07T11:51:25;10.33;;;3.20;;
20743;SDS011;56303;52.160;-0.428;2022-12-07T11:53:59;4.97;;;2.47;;
20743;SDS011;56303;52.160;-0.428;2022-12-07T11:56:31;5.20;;;2.97;;
20743;SDS011;56303;52.160;-0.428;2022-12-07T11:59:17;3.87;;;2.73;;
20743;SDS011;56303;52.160;-0.428;2022-12-07T12:02:00;8.37;;;3.50;;
20743;SDS011;56303;52.160;-0.428;2022-12-07T12:04:46;6.37;;;3.30;;
20743;SDS011;56303;52.160;-0.428;2022-12-07T12:07:33;6.33;;;3.20;;
20743;SDS011;56303;52.160;-0.428;2022-12-07T12:13:40;4.87;;;2.70;;
20743;SDS011;56303;52.160;-0.428;2022-12-07T12:19:44;5.27;;;2.83;;
20743;SDS011;56303;52.160;-0.428;2022-12-07T12:22:37;5.97;;;2.80;;
20743;SDS011;56303;52.160;-0.428;2022-12-07T12:25:13;8.03;;;3.10;;
20743;SDS011;56303;52.160;-0.428;2022-12-07T12:27:54;5.27;;;2.90;;
20743;SDS011;56303;52.160;-0.428;2022-12-07T12:30:37;6.33;;;3.00;;
20743;SDS011;56303;52.160;-0.428;2022-12-07T12:38:49;6.23;;;3.17;;
20743;SDS011;56303;52.160;-0.428;2022-12-07T12:51:44;6.97;;;3.53;;
20743;SDS011;56303;52.160;-0.428;2022-12-07T12:54:31;7.57;;;3.83;;
20743;SDS011;56303;52.160;-0.428;2022-12-07T12:57:02;7.83;;;3.73;;
20743;SDS011;56303;52.160;-0.428;2022-12-07T12:59:32;7.27;;;3.57;;
20743;SDS011;56303;52.160;-0.428;2022-12-07T13:15:41;7.00;;;3.30;;
20743;SDS011;56303;52.160;-0.428;2022-12-07T13:20:57;6.23;;;3.30;;
20743;SDS011;56303;52.160;-0.428;2022-12-07T13:26:14;6.93;;;3.30;;
20743;SDS011;56303;52.160;-0.428;2022-12-07T13:29:09;7.73;;;3.43;;
20743;SDS011;56303;52.160;-0.428;2022-12-07T13:31:54;4.47;;;2.77;;
20743;SDS011;56303;52.160;-0.428;2022-12-07T13:34:41;8.33;;;3.27;;
20743;SDS011;56303;52.160;-0.428;2022-12-07T13:40:05;6.63;;;3.03;;
20743;SDS011;56303;52.160;-0.428;2022-12-07T13:42:47;6.67;;;3.83;;
20743;SDS011;56303;52.160;-0.428;2022-12-07T13:45:25;5.30;;;3.33;;
20743;SDS011;56303;52.160;-0.428;2022-12-07T13:48:32;4.87;;;3.20;;
20743;SDS011;56303;52.160;-0.428;2022-12-07T13:51:02;5.80;;;3.13;;
20743;SDS011;56303;52.160;-0.428;2022-12-07T13:53:30;7.90;;;3.87;;
20743;SDS011;56303;52.160;-0.428;2022-12-07T13:55:57;10.13;;;4.80;;
20743;SDS011;56303;52.160;-0.428;2022-12-07T13:58:26;8.17;;;4.87;;
20743;SDS011;56303;52.160;-0.428;2022-12-07T14:00:57;8.33;;;4.47;;
20743;SDS011;56303;52.160;-0.428;2022-12-07T14:03:27;9.20;;;4.80;;
20743;SDS011;56303;52.160;-0.428;2022-12-07T14:06:13;7.97;;;5.27;;
20743;SDS011;56303;52.160;-0.428;2022-12-07T14:08:43;8.67;;;4.83;;
20743;SDS011;56303;52.160;-0.428;2022-12-07T14:11:15;10.10;;;5.37;;
20743;SDS011;56303;52.160;-0.428;2022-12-07T14:18:57;7.63;;;4.50;;
20743;SDS011;56303;52.160;-0.428;2022-12-07T14:21:30;7.90;;;4.77;;
20743;SDS011;56303;52.160;-0.428;2022-12-07T14:24:17;9.50;;;4.27;;
20743;SDS011;56303;52.160;-0.428;2022-12-07T14:26:46;6.60;;;4.03;;
20743;SDS011;56303;52.160;-0.428;2022-12-07T14:31:53;8.57;;;4.27;;
20743;SDS011;56303;52.160;-0.428;2022-12-07T14:34:21;6.93;;;4.20;;
20743;SDS011;56303;52.160;-0.428;2022-12-07T14:36:49;9.60;;;5.23;;
20743;SDS011;56303;52.160;-0.428;2022-12-07T14:39:17;8.90;;;4.23;;
20743;SDS011;56303;52.160;-0.428;2022-12-07T14:41:43;8.23;;;5.03;;
20743;SDS011;56303;52.160;-0.428;2022-12-07T14:44:19;6.10;;;3.57;;
20743;SDS011;56303;52.160;-0.428;2022-12-07T14:46:53;7.93;;;3.90;;
20743;SDS011;56303;52.160;-0.428;2022-12-07T14:49:40;8.07;;;3.70;;
20743;SDS011;56303;52.160;-0.428;2022-12-07T14:52:10;6.33;;;3.50;;
20743;SDS011;56303;52.160;-0.428;2022-12-07T14:55:02;8.43;;;4.13;;
20743;SDS011;56303;52.160;-0.428;2022-12-07T14:57:30;8.70;;;5.33;;
20743;SDS011;56303;52.160;-0.428;2022-12-07T14:59:56;13.60;;;6.20;;
20743;SDS011;56303;52.160;-0.428;2022-12-07T15:02:23;10.50;;;7.47;;
20743;SDS011;56303;52.160;-0.428;2022-12-07T15:04:50;11.57;;;5.57;;
20743;SDS011;56303;52.160;-0.428;2022-12-07T15:07:20;8.07;;;4.80;;
20743;SDS011;56303;52.160;-0.428;2022-12-07T15:09:48;6.20;;;3.70;;
20743;SDS011;56303;52.160;-0.428;2022-12-07T15:12:15;5.90;;;3.33;;
20743;SDS011;56303;52.160;-0.428;2022-12-07T15:14:42;5.63;;;3.60;;
20743;SDS011;56303;52.160;-0.428;2022-12-07T15:17:11;7.73;;;4.10;;
20743;SDS011;56303;52.160;-0.428;2022-12-07T15:19:53;8.40;;;3.77;;
20743;SDS011;56303;52.160;-0.428;2022-12-07T15:22:20;6.97;;;3.80;;
20743;SDS011;56303;52.160;-0.428;2022-12-07T15:24:46;7.17;;;3.87;;
20743;SDS011;56303;52.160;-0.428;2022-12-07T15:27:13;8.23;;;4.13;;
20743;SDS011;56303;52.160;-0.428;2022-12-07T15:29:40;9.00;;;3.50;;
20743;SDS011;56303;52.160;-0.428;2022-12-07T15:32:07;10.80;;;3.73;;
20743;SDS011;56303;52.160;-0.428;2022-12-07T15:34:34;7.47;;;3.57;;
20743;SDS011;56303;52.160;-0.428;2022-12-07T15:37:05;7.63;;;4.67;;
20743;SDS011;56303;52.160;-0.428;2022-12-07T15:39:33;7.13;;;3.90;;
20743;SDS011;56303;52.160;-0.428;2022-12-07T15:42:00;6.37;;;3.87;;
20743;SDS011;56303;52.160;-0.428;2022-12-07T15:44:27;6.93;;;3.53;;
20743;SDS011;56303;52.160;-0.428;2022-12-07T15:47:12;9.20;;;4.60;;
20743;SDS011;56303;52.160;-0.428;2022-12-07T15:49:39;11.17;;;3.70;;
20743;SDS011;56303;52.160;-0.428;2022-12-07T15:52:07;10.13;;;4.03;;
20743;SDS011;56303;52.160;-0.428;2022-12-07T15:54:40;8.00;;;3.80;;
20743;SDS011;56303;52.160;-0.428;2022-12-07T15:57:07;9.07;;;4.87;;
20743;SDS011;56303;52.160;-0.428;2022-12-07T15:59:34;9.57;;;5.07;;
20743;SDS011;56303;52.160;-0.428;2022-12-07T16:02:01;6.73;;;3.77;;
20743;SDS011;56303;52.160;-0.428;2022-12-07T16:04:28;7.37;;;3.83;;
20743;SDS011;56303;52.160;-0.428;2022-12-07T16:06:58;8.17;;;4.47;;
20743;SDS011;56303;52.160;-0.428;2022-12-07T16:09:25;8.47;;;5.20;;
20743;SDS011;56303;52.160;-0.428;2022-12-07T16:11:52;6.80;;;4.57;;
20743;SDS011;56303;52.160;-0.428;2022-12-07T16:14:19;9.27;;;4.83;;
20743;SDS011;56303;52.160;-0.428;2022-12-07T16:16:47;11.13;;;5.30;;
20743;SDS011;56303;52.160;-0.428;2022-12-07T16:19:14;9.00;;;5.30;;
20743;SDS011;56303;52.160;-0.428;2022-12-07T16:21:41;10.73;;;5.77;;
20743;SDS011;56303;52.160;-0.428;2022-12-07T16:24:08;8.17;;;5.47;;
20743;SDS011;56303;52.160;-0.428;2022-12-07T16:26:36;7.67;;;4.97;;
20743;SDS011;56303;52.160;-0.428;2022-12-07T16:29:03;11.33;;;6.07;;
20743;SDS011;56303;52.160;-0.428;2022-12-07T16:31:30;17.30;;;13.70;;
20743;SDS011;56303;52.160;-0.428;2022-12-07T16:33:57;11.90;;;9.40;;
20743;SDS011;56303;52.160;-0.428;2022-12-07T16:36:25;13.33;;;6.63;;
20743;SDS011;56303;52.160;-0.428;2022-12-07T16:39:13;12.17;;;6.47;;
20743;SDS011;56303;52.160;-0.428;2022-12-07T16:41:40;10.13;;;6.17;;
20743;SDS011;56303;52.160;-0.428;2022-12-07T16:44:09;10.27;;;6.60;;
20743;SDS011;56303;52.160;-0.428;2022-12-07T16:46:38;9.87;;;7.53;;
20743;SDS011;56303;52.160;-0.428;2022-12-07T16:49:05;11.30;;;7.63;;
20743;SDS011;56303;52.160;-0.428;2022-12-07T16:51:32;12.43;;;8.83;;
20743;SDS011;56303;52.160;-0.428;2022-12-07T16:54:00;13.57;;;8.67;;
20743;SDS011;56303;52.160;-0.428;2022-12-07T16:56:27;10.80;;;8.20;;
20743;SDS011;56303;52.160;-0.428;2022-12-07T16:58:57;12.50;;;8.20;;
20743;SDS011;56303;52.160;-0.428;2022-12-07T17:01:24;11.90;;;7.80;;
20743;SDS011;56303;52.160;-0.428;2022-12-07T17:03:54;11.13;;;7.73;;
20743;SDS011;56303;52.160;-0.428;2022-12-07T17:06:24;11.27;;;7.17;;
20743;SDS011;56303;52.160;-0.428;2022-12-07T17:08:53;9.80;;;7.23;;
20743;SDS011;56303;52.160;-0.428;2022-12-07T17:11:26;10.13;;;6.40;;
20743;SDS011;56303;52.160;-0.428;2022-12-07T17:13:54;11.97;;;7.03;;
20743;SDS011;56303;52.160;-0.428;2022-12-07T17:16:40;12.03;;;7.00;;
20743;SDS011;56303;52.160;-0.428;2022-12-07T17:19:09;13.03;;;6.67;;
20743;SDS011;56303;52.160;-0.428;2022-12-07T17:21:38;12.47;;;6.50;;